createdAt,value
2022-10-18T00:01:14.669Z,102072.94
2022-10-18T00:06:14.041Z,102081.84
2022-10-18T00:08:41.359Z,102079.56
2022-10-18T00:11:15.404Z,102074.94
2022-10-18T00:13:42.325Z,102080.31
2022-10-18T00:16:17.024Z,102081.84
2022-10-18T00:18:45.149Z,102083.66
2022-10-18T00:21:18.851Z,102081.00
2022-10-18T00:23:47.930Z,102088.66
2022-10-18T00:26:35.451Z,102089.13
2022-10-18T00:29:05.611Z,102088.56
2022-10-18T00:31:37.909Z,102082.78
2022-10-18T00:34:11.298Z,102085.44
2022-10-18T00:36:41.221Z,102087.25
2022-10-18T00:39:10.893Z,102088.47
2022-10-18T00:41:38.148Z,102088.66
2022-10-18T00:44:28.030Z,102092.75
2022-10-18T00:47:09.361Z,102098.72
2022-10-18T00:49:45.799Z,102099.84
2022-10-18T00:52:30.126Z,102091.22
2022-10-18T00:54:58.331Z,102093.13
2022-10-18T00:57:26.037Z,102092.06
2022-10-18T00:59:56.009Z,102093.13
2022-10-18T01:02:25.359Z,102094.91
2022-10-18T01:04:52.261Z,102092.56
2022-10-18T01:07:44.359Z,102102.31
2022-10-18T01:10:32.348Z,102093.88
2022-10-18T01:13:11.011Z,102105.16
2022-10-18T01:15:51.977Z,102109.41
2022-10-18T01:18:43.475Z,102103.63
2022-10-18T01:21:56.153Z,102107.06
2022-10-18T01:24:40.984Z,102102.19
2022-10-18T01:27:38.827Z,102104.13
2022-10-18T01:30:38.158Z,102117.66
2022-10-18T01:33:13.097Z,102116.72
2022-10-18T01:35:50.439Z,102122.19
2022-10-18T01:38:19.908Z,102113.91
2022-10-18T01:40:49.884Z,102105.31
2022-10-18T01:43:21.938Z,102111.72
2022-10-18T01:45:50.121Z,102103.75
2022-10-18T01:48:20.844Z,102107.97
2022-10-18T01:50:50.295Z,102115.94
2022-10-18T01:53:33.588Z,102109.97
2022-10-18T01:56:49.083Z,102114.44
2022-10-18T01:59:58.032Z,102111.69
2022-10-18T02:02:51.090Z,102109.78
2022-10-18T02:05:34.260Z,102101.75
2022-10-18T02:08:48.069Z,102093.44
2022-10-18T02:11:18.895Z,102095.88
2022-10-18T02:14:01.233Z,102091.72
2022-10-18T02:16:51.178Z,102096.91
2022-10-18T02:19:30.450Z,102090.03
2022-10-18T02:21:59.174Z,102091.72
2022-10-18T02:24:36.024Z,102081.97
2022-10-18T02:27:03.256Z,102086.63
2022-10-18T02:29:35.141Z,102086.50
2022-10-18T02:32:25.544Z,102093.19
2022-10-18T02:35:04.430Z,102089.59
2022-10-18T02:37:37.563Z,102088.81
2022-10-18T02:40:09.565Z,102082.28
2022-10-18T02:42:48.719Z,102080.22
2022-10-18T02:45:16.200Z,102088.69
2022-10-18T02:47:43.471Z,102085.16
2022-10-18T02:50:13.173Z,102093.25
2022-10-18T02:52:40.383Z,102089.06
2022-10-18T02:55:09.743Z,102076.31
2022-10-18T02:57:39.185Z,102081.19
2022-10-18T03:00:07.402Z,102081.13
2022-10-18T03:02:34.290Z,102080.78
2022-10-18T03:05:01.222Z,102073.56
2022-10-18T03:07:30.462Z,102073.28
2022-10-18T03:09:57.521Z,102078.41
2022-10-18T03:12:26.913Z,102082.63
2022-10-18T03:14:56.751Z,102079.00
2022-10-18T03:17:23.586Z,102080.88
2022-10-18T03:19:50.485Z,102073.72
2022-10-18T03:22:19.725Z,102079.16
2022-10-18T03:24:46.714Z,102070.31
2022-10-18T03:27:13.634Z,102073.38
2022-10-18T03:29:40.731Z,102077.00
2022-10-18T03:32:07.604Z,102063.84
2022-10-18T03:34:36.976Z,102069.09
2022-10-18T03:37:05.486Z,102059.06
2022-10-18T03:39:37.077Z,102062.00
2022-10-18T03:42:04.071Z,102064.19
2022-10-18T03:44:32.992Z,102062.63
2022-10-18T03:46:59.833Z,102060.47
2022-10-18T03:49:27.701Z,102057.38
2022-10-18T03:51:54.552Z,102062.94
2022-10-18T03:54:21.394Z,102064.34
2022-10-18T03:56:51.253Z,102064.31
2022-10-18T03:59:18.142Z,102058.03
2022-10-18T04:01:45.003Z,102063.22
2022-10-18T04:04:11.920Z,102049.69
2022-10-18T04:06:38.763Z,102049.19
2022-10-18T04:09:10.204Z,102054.94
2022-10-18T04:11:39.899Z,102055.31
2022-10-18T04:14:06.803Z,102054.44
2022-10-18T04:16:33.744Z,102053.94
2022-10-18T04:19:03.126Z,102051.41
2022-10-18T04:21:30.247Z,102050.53
2022-10-18T04:24:00.109Z,102057.16
2022-10-18T04:26:26.948Z,102063.00
2022-10-18T04:28:53.868Z,102050.41
2022-10-18T04:31:20.741Z,102054.38
2022-10-18T04:33:49.716Z,102060.50
2022-10-18T04:36:16.543Z,102055.53
2022-10-18T04:38:43.425Z,102056.38
2022-10-18T04:41:12.748Z,102058.75
2022-10-18T04:43:42.720Z,102067.34
2022-10-18T04:46:09.764Z,102055.88
2022-10-18T04:48:44.071Z,102056.38
2022-10-18T04:51:11.074Z,102063.25
2022-10-18T04:53:37.907Z,102056.22
2022-10-18T04:56:05.042Z,102055.81
2022-10-18T04:58:32.549Z,102063.00
2022-10-18T05:01:09.461Z,102060.72
2022-10-18T05:03:39.430Z,102071.56
2022-10-18T05:06:11.292Z,102059.41
2022-10-18T05:08:38.508Z,102066.97
2022-10-18T05:11:05.643Z,102068.31
2022-10-18T05:13:32.514Z,102061.59
2022-10-18T05:16:00.254Z,102060.03
2022-10-18T05:18:27.348Z,102056.09
2022-10-18T05:20:56.767Z,102054.75
2022-10-18T05:23:26.810Z,102054.38
2022-10-18T05:25:54.225Z,102056.81
2022-10-18T05:28:41.103Z,102058.50
2022-10-18T05:31:11.708Z,102060.91
2022-10-18T05:33:38.592Z,102073.59
2022-10-18T05:36:05.664Z,102067.81
2022-10-18T05:38:32.796Z,102079.28
2022-10-18T05:40:59.923Z,102077.41
2022-10-18T05:43:30.098Z,102062.56
2022-10-18T05:45:57.049Z,102060.16
2022-10-18T05:48:24.158Z,102064.25
2022-10-18T05:50:53.232Z,102061.38
2022-10-18T05:53:37.143Z,102062.38
2022-10-18T05:56:11.686Z,102063.06
2022-10-18T05:58:42.062Z,102065.63
2022-10-18T06:01:10.205Z,102080.13
2022-10-18T06:03:40.227Z,102084.78
2022-10-18T06:06:11.674Z,102081.53
2022-10-18T06:08:40.414Z,102077.91
2022-10-18T06:11:19.742Z,102083.25
2022-10-18T06:13:51.350Z,102086.50
2022-10-18T06:16:22.884Z,102085.84
2022-10-18T06:18:52.715Z,102083.63
2022-10-18T06:21:20.631Z,102081.56
2022-10-18T06:23:58.998Z,102074.03
2022-10-18T06:26:29.537Z,102086.00
2022-10-18T06:28:58.953Z,102088.41
2022-10-18T06:31:25.878Z,102093.69
2022-10-18T06:33:52.838Z,102079.81
2022-10-18T06:36:22.232Z,102083.25
2022-10-18T06:38:50.076Z,102080.50
2022-10-18T06:41:19.159Z,102084.63
2022-10-18T06:43:56.807Z,102087.38
2022-10-18T06:46:24.795Z,102080.88
2022-10-18T06:48:57.665Z,102077.59
2022-10-18T06:51:24.508Z,102078.97
2022-10-18T06:54:06.281Z,102088.38
2022-10-18T06:56:38.699Z,102090.09
2022-10-18T06:59:10.309Z,102088.91
2022-10-18T07:01:40.362Z,102089.25
2022-10-18T07:04:09.580Z,102095.91
2022-10-18T07:06:36.450Z,102097.97
2022-10-18T07:09:03.888Z,102097.28
2022-10-18T07:11:33.212Z,102099.69
2022-10-18T07:14:03.213Z,102099.16
2022-10-18T07:16:36.088Z,102103.78
2022-10-18T07:19:05.280Z,102106.53
2022-10-18T07:21:34.491Z,102102.44
2022-10-18T07:24:03.886Z,102113.88
2022-10-18T07:26:33.337Z,102115.59
2022-10-18T07:29:06.620Z,102123.97
2022-10-18T07:31:39.066Z,102122.09
2022-10-18T07:34:10.909Z,102114.56
2022-10-18T07:36:41.186Z,102115.25
2022-10-18T07:39:08.228Z,102119.53
2022-10-18T07:41:37.543Z,102126.88
2022-10-18T07:44:05.139Z,102140.06
2022-10-18T07:46:32.069Z,102139.72
2022-10-18T07:48:59.655Z,102135.25
2022-10-18T07:51:32.747Z,102151.69
2022-10-18T07:53:59.890Z,102146.19
2022-10-18T07:56:28.772Z,102157.16
2022-10-18T07:58:58.194Z,102165.72
2022-10-18T08:01:25.574Z,102166.06
2022-10-18T08:03:53.544Z,102158.16
2022-10-18T08:06:22.615Z,102160.75
2022-10-18T08:08:52.306Z,102159.81
2022-10-18T08:11:25.508Z,102163.31
2022-10-18T08:13:57.411Z,102158.63
2022-10-18T08:16:28.287Z,102165.63
2022-10-18T08:19:00.313Z,102161.50
2022-10-18T08:21:29.613Z,102168.31
2022-10-18T08:23:56.502Z,102169.44
2022-10-18T08:26:25.996Z,102166.81
2022-10-18T08:29:09.845Z,102163.75
2022-10-18T08:31:42.925Z,102170.22
2022-10-18T08:34:09.733Z,102169.56
2022-10-18T08:36:37.449Z,102161.91
2022-10-18T08:39:04.341Z,102156.63
2022-10-18T08:41:37.460Z,102155.22
2022-10-18T08:44:26.926Z,102153.69
2022-10-18T08:47:12.633Z,102160.72
2022-10-18T08:49:48.496Z,102152.81
2022-10-18T08:55:18.606Z,102145.88
2022-10-18T08:57:52.484Z,102151.00
2022-10-18T09:00:25.455Z,102146.97
2022-10-18T09:03:35.909Z,102152.81
2022-10-18T09:06:42.638Z,102158.22
2022-10-18T09:09:18.329Z,102166.03
2022-10-18T09:12:19.043Z,102154.00
2022-10-18T09:15:07.960Z,102162.97
2022-10-18T09:17:44.667Z,102164.44
2022-10-18T09:20:38.207Z,102149.06
2022-10-18T09:23:16.348Z,102156.50
2022-10-18T09:25:58.332Z,102152.22
2022-10-18T09:29:24.683Z,102146.00
2022-10-18T09:32:59.321Z,102149.91
2022-10-18T09:35:33.989Z,102149.69
2022-10-18T09:38:10.651Z,102162.97
2022-10-18T09:40:54.903Z,102157.97
2022-10-18T09:43:39.438Z,102154.78
2022-10-18T09:46:07.893Z,102156.94
2022-10-18T09:48:50.332Z,102140.75
2022-10-18T09:51:25.803Z,102159.22
2022-10-18T09:54:12.519Z,102162.53
2022-10-18T09:57:32.788Z,102160.50
2022-10-18T10:00:01.753Z,102162.13
2022-10-18T10:02:28.738Z,102174.34
2022-10-18T10:04:55.811Z,102170.75
2022-10-18T10:07:32.532Z,102160.94
2022-10-18T10:10:27.340Z,102164.50
2022-10-18T10:13:17.058Z,102166.91
2022-10-18T10:15:52.344Z,102173.38
2022-10-18T10:18:32.435Z,102172.81
2022-10-18T10:21:07.618Z,102170.59
2022-10-18T10:23:46.109Z,102180.81
2022-10-18T10:26:33.866Z,102170.88
2022-10-18T10:29:01.217Z,102173.66
2022-10-18T10:31:33.574Z,102171.28
2022-10-18T10:34:05.290Z,102177.03
2022-10-18T10:36:35.772Z,102161.97
2022-10-18T10:39:20.570Z,102163.72
2022-10-18T10:41:54.139Z,102165.94
2022-10-18T10:44:28.694Z,102156.47
2022-10-18T10:47:00.814Z,102155.69
2022-10-18T10:49:43.961Z,102148.78
2022-10-18T10:52:28.587Z,102139.31
2022-10-18T10:55:06.121Z,102135.13
2022-10-18T10:57:46.583Z,102144.44
2022-10-18T11:00:43.196Z,102140.50
2022-10-18T11:03:29.243Z,102145.44
2022-10-18T11:06:00.835Z,102137.91
2022-10-18T11:08:38.377Z,102137.44
2022-10-18T11:11:27.769Z,102137.06
2022-10-18T11:14:30.553Z,102138.81
2022-10-18T11:17:39.433Z,102125.13
2022-10-18T11:20:19.401Z,102124.44
2022-10-18T11:23:01.156Z,102131.25
2022-10-18T11:25:42.185Z,102125.78
2022-10-18T11:28:56.522Z,102118.31
2022-10-18T11:31:42.186Z,102120.78
2022-10-18T11:34:44.702Z,102135.97
2022-10-18T11:37:31.106Z,102134.28
2022-10-18T11:40:38.040Z,102125.44
2022-10-18T11:44:01.105Z,102126.59
2022-10-18T11:47:20.651Z,102131.97
2022-10-18T11:50:03.371Z,102127.00
2022-10-18T11:52:58.666Z,102133.97
2022-10-18T11:55:49.592Z,102148.56
2022-10-18T11:58:37.793Z,102146.94
2022-10-18T12:01:04.586Z,102144.19
2022-10-18T12:03:51.177Z,102148.63
2022-10-18T12:06:30.754Z,102158.41
2022-10-18T12:09:28.151Z,102137.78
2022-10-18T12:12:03.082Z,102140.53
2022-10-18T12:14:37.467Z,102143.66
2022-10-18T12:17:51.604Z,102148.88
2022-10-18T12:20:27.557Z,102144.13
2022-10-18T12:23:31.787Z,102140.56
2022-10-18T12:26:05.970Z,102143.09
2022-10-18T12:28:38.807Z,102149.50
2022-10-18T12:31:39.639Z,102149.75
2022-10-18T12:34:21.353Z,102143.06
2022-10-18T12:39:44.178Z,102162.78
2022-10-18T12:42:28.811Z,102155.00
2022-10-18T12:45:38.319Z,102144.56
2022-10-18T12:48:07.335Z,102152.09
2022-10-18T12:50:43.520Z,102157.97
2022-10-18T12:53:10.359Z,102153.75
2022-10-18T12:58:27.209Z,102149.75
2022-10-18T13:01:03.841Z,102156.38
2022-10-18T13:03:53.544Z,102153.97
2022-10-18T13:06:23.640Z,102155.94
2022-10-18T13:09:20.163Z,102156.44
2022-10-18T13:11:51.787Z,102156.34
2022-10-18T13:14:35.487Z,102155.63
2022-10-18T13:17:45.022Z,102168.53
2022-10-18T13:20:27.258Z,102164.19
2022-10-18T13:23:37.121Z,102159.53
2022-10-18T13:26:14.699Z,102165.31
2022-10-18T13:29:08.771Z,102156.31
2022-10-18T13:32:28.792Z,102147.28
2022-10-18T13:34:55.850Z,102147.94
2022-10-18T13:37:27.111Z,102157.06
2022-10-18T13:40:24.656Z,102155.50
2022-10-18T13:42:53.848Z,102155.88
2022-10-18T13:45:35.767Z,102165.22
2022-10-18T13:48:32.889Z,102161.56
2022-10-18T13:51:38.734Z,102163.22
2022-10-18T13:54:29.863Z,102160.78
2022-10-18T13:57:31.727Z,102165.50
2022-10-18T14:00:19.662Z,102151.72
2022-10-18T14:03:31.730Z,102153.66
2022-10-18T14:06:19.291Z,102150.63
2022-10-18T14:09:25.485Z,102158.72
2022-10-18T14:12:33.789Z,102160.47
2022-10-18T14:15:17.698Z,102163.78
2022-10-18T14:18:17.496Z,102167.25
2022-10-18T14:21:13.347Z,102171.03
2022-10-18T14:23:44.817Z,102166.09
2022-10-18T14:26:15.479Z,102165.13
2022-10-18T14:28:59.049Z,102160.28
2022-10-18T14:31:27.633Z,102169.81
2022-10-18T14:33:58.265Z,102167.22
2022-10-18T14:36:36.141Z,102164.28
2022-10-18T14:39:15.422Z,102166.13
2022-10-18T14:41:56.442Z,102160.91
2022-10-18T14:44:33.332Z,102157.38
2022-10-18T14:47:00.258Z,102161.22
2022-10-18T14:49:27.501Z,102160.44
2022-10-18T14:52:00.361Z,102163.28
2022-10-18T14:54:37.704Z,102161.00
2022-10-18T14:57:07.010Z,102164.50
2022-10-18T15:00:06.143Z,102165.19
2022-10-18T15:02:37.716Z,102166.84
2022-10-18T15:05:20.517Z,102164.69
2022-10-18T15:07:50.596Z,102168.28
2022-10-18T15:10:37.751Z,102170.75
2022-10-18T15:13:11.137Z,102169.31
2022-10-18T15:15:39.719Z,102163.97
2022-10-18T15:18:08.526Z,102161.88
2022-10-18T15:20:42.584Z,102159.41
2022-10-18T15:23:39.032Z,102155.53
2022-10-18T15:26:13.130Z,102153.56
2022-10-18T15:29:00.401Z,102161.44
2022-10-18T15:31:35.225Z,102154.50
2022-10-18T15:34:17.850Z,102153.63
2022-10-18T15:36:45.847Z,102149.41
2022-10-18T15:39:22.411Z,102159.63
2022-10-18T15:42:01.562Z,102159.31
2022-10-18T15:44:34.770Z,102149.91
2022-10-18T15:47:20.158Z,102139.84
2022-10-18T15:49:47.082Z,102146.47
2022-10-18T15:52:37.870Z,102153.78
2022-10-18T15:55:30.244Z,102162.50
2022-10-18T15:58:17.888Z,102157.75
2022-10-18T16:00:46.385Z,102148.66
2022-10-18T16:03:13.957Z,102148.53
2022-10-18T16:05:43.925Z,102145.72
2022-10-18T16:08:31.898Z,102155.16
2022-10-18T16:11:01.940Z,102139.91
2022-10-18T16:13:31.365Z,102145.38
2022-10-18T16:16:00.812Z,102145.94
2022-10-18T16:18:35.346Z,102148.22
2022-10-18T16:21:04.261Z,102159.56
2022-10-18T16:23:31.071Z,102160.53
2022-10-18T16:25:58.306Z,102157.53
2022-10-18T16:28:28.583Z,102158.59
2022-10-18T16:31:01.266Z,102161.25
2022-10-18T16:33:28.803Z,102164.19
2022-10-18T16:36:01.390Z,102161.25
2022-10-18T16:38:48.845Z,102163.22
2022-10-18T16:41:17.440Z,102164.97
2022-10-18T16:43:47.737Z,102162.28
2022-10-18T16:46:22.638Z,102168.53
2022-10-18T16:48:55.890Z,102174.00
2022-10-18T16:51:27.340Z,102177.78
2022-10-18T16:53:55.205Z,102184.66
2022-10-18T16:56:33.826Z,102190.38
2022-10-18T16:59:03.989Z,102193.16
2022-10-18T17:01:34.421Z,102191.53
2022-10-18T17:04:02.188Z,102198.06
2022-10-18T17:06:35.349Z,102200.88
2022-10-18T17:09:03.437Z,102195.69
2022-10-18T17:11:31.156Z,102204.81
2022-10-18T17:14:01.330Z,102201.94
2022-10-18T17:16:35.428Z,102201.59
2022-10-18T17:19:09.736Z,102208.16
2022-10-18T17:21:36.898Z,102214.31
2022-10-18T17:24:06.405Z,102212.41
2022-10-18T17:26:34.720Z,102223.69
2022-10-18T17:29:06.502Z,102224.75
2022-10-18T17:31:36.182Z,102225.09
2022-10-18T17:34:03.942Z,102234.19
2022-10-18T17:36:36.217Z,102236.75
2022-10-18T17:39:06.320Z,102239.66
2022-10-18T17:41:33.735Z,102232.09
2022-10-18T17:44:09.187Z,102241.38
2022-10-18T17:46:38.930Z,102240.84
2022-10-18T17:49:05.981Z,102239.97
2022-10-18T17:51:46.896Z,102228.00
2022-10-18T17:54:14.276Z,102226.66
2022-10-18T17:56:45.577Z,102239.31
2022-10-18T17:59:17.994Z,102237.59
2022-10-18T18:01:48.389Z,102240.31
2022-10-18T18:04:19.162Z,102250.22
2022-10-18T18:06:52.975Z,102244.06
2022-10-18T18:09:21.092Z,102252.44
2022-10-18T18:11:54.784Z,102250.56
2022-10-18T18:14:25.685Z,102249.03
2022-10-18T18:16:52.896Z,102248.53
2022-10-18T18:19:27.183Z,102250.22
2022-10-18T18:21:59.128Z,102254.00
2022-10-18T18:24:29.238Z,102263.75
2022-10-18T18:26:59.153Z,102257.47
2022-10-18T18:29:27.916Z,102258.81
2022-10-18T18:31:55.173Z,102267.91
2022-10-18T18:34:22.634Z,102264.94
2022-10-18T18:36:52.048Z,102263.28
2022-10-18T18:39:26.522Z,102264.31
2022-10-18T18:41:53.766Z,102260.88
2022-10-18T18:44:22.353Z,102257.97
2022-10-18T18:46:52.264Z,102260.19
2022-10-18T18:49:29.337Z,102257.13
2022-10-18T18:51:58.673Z,102265.63
2022-10-18T18:54:29.829Z,102262.44
2022-10-18T18:57:05.427Z,102257.63
2022-10-18T18:59:43.915Z,102247.88
2022-10-18T19:02:15.707Z,102253.84
2022-10-18T19:04:48.131Z,102246.63
2022-10-18T19:07:18.348Z,102258.28
2022-10-18T19:09:49.169Z,102260.53
2022-10-18T19:12:20.422Z,102259.16
2022-10-18T19:14:52.982Z,102261.91
2022-10-18T19:17:24.389Z,102255.06
2022-10-18T19:19:52.238Z,102255.03
2022-10-18T19:22:27.969Z,102253.13
2022-10-18T19:24:55.351Z,102264.25
2022-10-18T19:27:22.292Z,102274.91
2022-10-18T19:29:53.780Z,102272.31
2022-10-18T19:32:23.182Z,102275.94
2022-10-18T19:34:52.354Z,102262.59
2022-10-18T19:37:23.893Z,102271.84
2022-10-18T19:39:50.949Z,102264.47
2022-10-18T19:42:21.126Z,102271.78
2022-10-18T19:44:53.541Z,102271.81
2022-10-18T19:47:22.970Z,102273.69
2022-10-18T19:49:50.379Z,102264.09
2022-10-18T19:52:17.476Z,102264.25
2022-10-18T19:54:45.260Z,102264.78
2022-10-18T19:57:12.362Z,102264.75
2022-10-18T19:59:42.537Z,102265.09
2022-10-18T20:02:15.314Z,102263.56
2022-10-18T20:04:44.834Z,102268.03
2022-10-18T20:07:14.661Z,102261.53
2022-10-18T20:09:41.820Z,102263.94
2022-10-18T20:12:11.401Z,102253.00
2022-10-18T20:14:38.623Z,102260.84
2022-10-18T20:17:06.313Z,102257.81
2022-10-18T20:19:33.505Z,102257.09
2022-10-18T20:22:00.785Z,102262.56
2022-10-18T20:24:33.832Z,102269.72
2022-10-18T20:27:00.973Z,102276.72
2022-10-18T20:29:28.227Z,102277.94
2022-10-18T20:31:58.077Z,102277.97
2022-10-18T20:34:26.287Z,102282.44
2022-10-18T20:37:05.475Z,102274.72
2022-10-18T20:39:33.636Z,102276.25
2022-10-18T20:42:00.694Z,102273.00
2022-10-18T20:44:28.082Z,102280.34
2022-10-18T20:46:57.318Z,102282.78
2022-10-18T20:49:24.429Z,102279.00
2022-10-18T20:51:51.523Z,102287.38
2022-10-18T20:54:19.095Z,102277.41
2022-10-18T20:56:48.312Z,102280.28
2022-10-18T20:59:15.881Z,102276.53
2022-10-18T21:01:43.479Z,102275.53
2022-10-18T21:04:11.158Z,102281.69
2022-10-18T21:06:44.706Z,102283.38
2022-10-18T21:09:16.075Z,102281.16
2022-10-18T21:11:45.954Z,102270.91
2022-10-18T21:14:16.285Z,102273.16
2022-10-18T21:16:46.787Z,102265.25
2022-10-18T21:19:24.407Z,102283.06
2022-10-18T21:22:00.328Z,102272.63
2022-10-18T21:24:30.588Z,102271.63
2022-10-18T21:26:57.730Z,102273.84
2022-10-18T21:29:24.997Z,102268.72
2022-10-18T21:31:59.492Z,102275.56
2022-10-18T21:34:29.704Z,102280.31
2022-10-18T21:36:56.663Z,102281.72
2022-10-18T21:41:51.563Z,102277.22
2022-10-18T21:44:23.701Z,102276.81
2022-10-18T21:46:50.858Z,102277.66
2022-10-18T21:49:23.482Z,102270.53
2022-10-18T21:51:52.944Z,102277.72
2022-10-18T21:54:20.426Z,102272.41
2022-10-18T21:56:47.604Z,102273.31
2022-10-18T21:59:19.804Z,102259.25
2022-10-18T22:01:47.023Z,102271.38
2022-10-18T22:04:21.663Z,102259.34
2022-10-18T22:06:49.507Z,102258.44
2022-10-18T22:09:17.076Z,102261.97
2022-10-18T22:11:49.757Z,102258.53
2022-10-18T22:14:25.289Z,102253.69
2022-10-18T22:16:52.626Z,102261.88
2022-10-18T22:19:20.133Z,102264.50
2022-10-18T22:21:47.636Z,102260.59
2022-10-18T22:24:14.728Z,102264.72
2022-10-18T22:26:44.054Z,102266.75
2022-10-18T22:29:20.320Z,102258.44
2022-10-18T22:31:52.573Z,102260.16
2022-10-18T22:34:24.016Z,102265.28
2022-10-18T22:36:51.202Z,102276.22
2022-10-18T22:39:18.228Z,102272.09
2022-10-18T22:41:47.740Z,102269.78
2022-10-18T22:44:15.094Z,102271.03
2022-10-18T22:46:44.791Z,102266.19
2022-10-18T22:49:12.174Z,102260.16
2022-10-18T22:51:39.322Z,102264.97
2022-10-18T22:54:08.787Z,102271.72
2022-10-18T22:56:35.857Z,102258.44
2022-10-18T22:59:05.338Z,102258.81
2022-10-18T23:01:34.746Z,102252.22
2022-10-18T23:04:02.025Z,102251.03
2022-10-18T23:06:34.259Z,102263.03
2022-10-18T23:09:10.019Z,102264.31
2022-10-18T23:11:37.596Z,102267.44
2022-10-18T23:14:06.810Z,102261.50
2022-10-18T23:16:38.858Z,102263.53
2022-10-18T23:19:05.900Z,102264.44
2022-10-18T23:21:35.211Z,102268.50
2022-10-18T23:24:05.262Z,102275.75
2022-10-18T23:26:34.391Z,102275.44
2022-10-18T23:29:01.389Z,102267.66
2022-10-18T23:31:33.382Z,102276.22
2022-10-18T23:34:05.186Z,102273.09
2022-10-18T23:36:36.335Z,102266.31
2022-10-18T23:39:06.467Z,102271.00
2022-10-18T23:41:33.395Z,102272.91
2022-10-18T23:44:02.683Z,102262.22
2022-10-18T23:46:29.574Z,102278.16
2022-10-18T23:48:56.414Z,102270.13
2022-10-18T23:51:27.939Z,102284.38
2022-10-18T23:53:57.783Z,102280.13
2022-10-18T23:56:24.714Z,102276.22
2022-10-18T23:58:53.859Z,102274.47
